Time,TemperatureF,DewpointF,PressureIn,WindDirection,WindDirectionDegrees,WindSpeedMPH,WindSpeedGustMPH,Humidity,HourlyPrecipIn,Conditions,Clouds,dailyrainin,SoftwareType,DateUTC
2013-03-25 00:00:00,38.3,35.1,30.14,WSW,258,0.0,0.0,88,0.00,CLR,,0.00,WeatherDisplay:10.37,2013-03-25 07:00:00,
2013-03-25 00:05:00,38.3,34.8,30.14,WSW,258,0.0,0.0,87,0.00,CLR,,0.00,WeatherDisplay:10.37,2013-03-25 07:05:00,
2013-03-25 00:10:00,38.1,34.9,30.14,WSW,258,0.0,0.0,88,0.00,CLR,,0.00,WeatherDisplay:10.37,2013-03-25 07:10:00,
2013-03-25 00:20:00,37.5,34.6,30.14,WSW,256,0.0,0.0,89,0.00,CLR,,0.00,WeatherDisplay:10.37,2013-03-25 07:20:00,
2013-03-25 00:30:00,37.0,34.4,30.14,WSW,251,0.0,0.0,90,0.00,CLR,,0.00,WeatherDisplay:10.37,2013-03-25 07:30:00,
2013-03-25 00:40:00,36.8,34.1,30.14,WSW,251,0.0,0.0,90,0.00,CLR,,0.00,WeatherDisplay:10.37,2013-03-25 07:40:00,
2013-03-25 00:50:00,36.5,34.1,30.14,WSW,252,0.0,0.0,91,0.00,CLR,,0.00,WeatherDisplay:10.37,2013-03-25 07:50:00,
2013-03-25 01:00:00,36.3,33.9,30.14,WSW,252,0.0,0.0,91,0.00,CLR,,0.00,WeatherDisplay:10.37,2013-03-25 08:00:00,
2013-03-25 01:05:00,36.1,33.5,30.13,WSW,252,0.0,0.0,90,0.00,CLR,,0.00,WeatherDisplay:10.37,2013-03-25 08:05:00,
2013-03-25 01:10:00,36.0,33.6,30.13,WSW,251,0.0,0.0,91,0.00,CLR,,0.00,WeatherDisplay:10.37,2013-03-25 08:10:00,
2013-03-25 01:20:00,35.5,33.1,30.13,WSW,252,0.0,0.0,91,0.00,CLR,,0.00,WeatherDisplay:10.37,2013-03-25 08:20:00,
2013-03-25 01:30:00,35.3,33.2,30.13,WSW,252,0.0,0.0,92,0.00,CLR,,0.00,WeatherDisplay:10.37,2013-03-25 08:30:00,
2013-03-25 01:40:00,34.9,33.1,30.13,WSW,252,0.0,0.0,93,0.00,CLR,,0.00,WeatherDisplay:10.37,2013-03-25 08:40:00,
2013-03-25 01:50:00,34.6,32.8,30.13,ENE,69,0.0,0.0,93,0.00,CLR,,0.00,WeatherDisplay:10.37,2013-03-25 08:50:00,
2013-03-25 02:00:00,34.2,32.4,30.13,ENE,69,0.0,0.0,93,0.00,CLR,,0.00,WeatherDisplay:10.37,2013-03-25 09:00:00,
2013-03-25 02:05:00,34.0,32.2,30.12,ENE,70,0.0,0.0,93,0.00,CLR,,0.00,WeatherDisplay:10.37,2013-03-25 09:05:00,
2013-03-25 02:10:00,33.8,32.0,30.12,ENE,70,0.0,0.0,93,0.00,CLR,,0.00,WeatherDisplay:10.37,2013-03-25 09:10:00,
2013-03-25 02:20:00,33.3,31.5,30.12,ENE,70,0.0,0.0,93,0.00,CLR,,0.00,WeatherDisplay:10.37,2013-03-25 09:20:00,
2013-03-25 02:30:00,33.4,31.9,30.12,ENE,70,0.0,0.0,94,0.00,CLR,,0.00,WeatherDisplay:10.37,2013-03-25 09:30:00,
2013-03-25 02:40:00,33.3,31.8,30.12,ENE,71,0.0,0.0,94,0.00,CLR,,0.00,WeatherDisplay:10.37,2013-03-25 09:40:00,
2013-03-25 02:50:00,33.1,31.6,30.12,ENE,59,0.0,0.0,94,0.00,CLR,,0.00,WeatherDisplay:10.37,2013-03-25 09:50:00,
2013-03-25 03:00:00,32.9,31.4,30.12,NE,56,0.0,0.0,94,0.00,CLR,,0.00,WeatherDisplay:10.37,2013-03-25 10:00:00,
2013-03-25 03:05:00,32.8,31.3,30.12,ENE,58,0.0,0.0,94,0.00,CLR,,0.00,WeatherDisplay:10.37,2013-03-25 10:05:00,
2013-03-25 03:10:00,32.7,31.4,30.11,East,100,0.0,0.0,95,0.00,CLR,,0.00,WeatherDisplay:10.37,2013-03-25 10:10:00,
2013-03-25 03:20:00,32.5,31.2,30.11,SW,227,0.0,0.0,95,0.00,CLR,,0.00,WeatherDisplay:10.37,2013-03-25 10:20:00,
2013-03-25 03:30:00,32.4,31.1,30.11,WNW,285,0.0,0.0,95,0.00,CLR,,0.00,WeatherDisplay:10.37,2013-03-25 10:30:00,
2013-03-25 03:40:00,32.2,30.9,30.11,ENE,66,0.0,0.0,95,0.00,CLR,,0.00,WeatherDisplay:10.37,2013-03-25 10:40:00,
2013-03-25 03:50:00,32.0,30.7,30.10,ENE,66,0.0,0.0,95,0.00,CLR,,0.00,WeatherDisplay:10.37,2013-03-25 10:50:00,
2013-03-25 04:00:00,32.0,30.7,30.10,NE,36,0.0,0.0,95,0.00,CLR,,0.00,WeatherDisplay:10.37,2013-03-25 11:00:00,
2013-03-25 04:05:00,31.8,30.6,30.10,ENE,66,0.0,0.0,95,0.00,CLR,,0.00,WeatherDisplay:10.37,2013-03-25 11:05:00,
2013-03-25 04:10:00,31.7,30.5,30.10,ENE,69,0.0,0.0,95,0.00,CLR,,0.00,WeatherDisplay:10.37,2013-03-25 11:10:00,
2013-03-25 04:20:00,31.6,30.6,30.10,ENE,70,0.0,0.0,96,0.00,CLR,,0.00,WeatherDisplay:10.37,2013-03-25 11:20:00,
2013-03-25 04:30:00,31.5,30.4,30.10,ENE,65,0.0,0.0,96,0.00,CLR,,0.00,WeatherDisplay:10.37,2013-03-25 11:30:00,
2013-03-25 04:40:00,31.3,30.3,30.10,ENE,64,0.0,0.0,96,0.00,CLR,,0.00,WeatherDisplay:10.37,2013-03-25 11:40:00,
2013-03-25 04:50:00,31.1,30.1,30.10,ENE,64,0.0,0.0,96,0.00,CLR,,0.00,WeatherDisplay:10.37,2013-03-25 11:50:00,
2013-03-25 05:00:00,31.0,30.0,30.10,ENE,66,0.0,0.0,96,0.00,CLR,,0.00,WeatherDisplay:10.37,2013-03-25 12:00:00,
2013-03-25 05:05:00,30.9,29.9,30.10,ENE,70,0.0,0.0,96,0.00,CLR,,0.00,WeatherDisplay:10.37,2013-03-25 12:05:00,
2013-03-25 05:10:00,30.8,29.8,30.10,ENE,72,0.0,0.0,96,0.00,CLR,,0.00,WeatherDisplay:10.37,2013-03-25 12:10:00,
2013-03-25 05:20:00,30.6,29.6,30.10,ENE,72,0.0,0.0,96,0.00,CLR,,0.00,WeatherDisplay:10.37,2013-03-25 12:20:00,
2013-03-25 05:30:00,30.6,29.9,30.10,ENE,73,0.0,0.0,97,0.00,CLR,,0.00,WeatherDisplay:10.37,2013-03-25 12:30:00,
2013-03-25 05:40:00,30.4,29.4,30.10,ENE,73,0.0,0.0,96,0.00,CLR,,0.00,WeatherDisplay:10.37,2013-03-25 12:40:00,
2013-03-25 05:45:00,30.3,29.6,30.10,ENE,72,0.0,0.0,97,0.00,CLR,,0.00,WeatherDisplay:10.37,2013-03-25 12:45:00,
2013-03-25 05:55:00,30.3,29.5,30.10,ENE,73,0.0,0.0,97,0.00,CLR,,0.00,WeatherDisplay:10.37,2013-03-25 12:55:00,
2013-03-25 06:00:00,30.3,29.5,30.10,ENE,69,0.0,0.0,97,0.00,CLR,,0.00,WeatherDisplay:10.37,2013-03-25 13:00:00,
2013-03-25 06:05:00,30.3,29.6,30.10,ENE,62,0.0,0.0,97,0.00,CLR,,0.00,WeatherDisplay:10.37,2013-03-25 13:05:00,
2013-03-25 06:10:00,30.3,29.6,30.10,ENE,60,0.0,0.0,97,0.00,CLR,,0.00,WeatherDisplay:10.37,2013-03-25 13:10:00,
2013-03-25 06:25:00,30.0,29.3,30.10,ENE,61,0.0,0.0,97,0.00,CLR,,0.00,WeatherDisplay:10.37,2013-03-25 13:25:00,
2013-03-25 06:30:00,30.0,29.2,30.10,ENE,61,0.0,0.0,97,0.00,CLR,,0.00,WeatherDisplay:10.37,2013-03-25 13:30:00,
2013-03-25 06:40:00,29.8,29.1,30.10,ENE,61,0.0,0.0,97,0.00,CLR,,0.00,WeatherDisplay:10.37,2013-03-25 13:40:00,
2013-03-25 06:45:00,29.8,29.1,30.09,ENE,61,0.0,0.0,97,0.00,CLR,,0.00,WeatherDisplay:10.37,2013-03-25 13:45:00,
2013-03-25 06:50:00,29.7,29.0,30.09,ENE,61,0.0,0.0,97,0.00,CLR,,0.00,WeatherDisplay:10.37,2013-03-25 13:50:00,
2013-03-25 07:00:00,29.6,28.9,30.09,ENE,61,0.0,0.0,97,0.00,CLR,,0.00,WeatherDisplay:10.37,2013-03-25 14:00:00,
2013-03-25 07:05:00,29.6,28.9,30.10,ENE,63,0.0,0.0,97,0.00,CLR,,0.00,WeatherDisplay:10.37,2013-03-25 14:05:00,
2013-03-25 07:10:00,29.5,28.8,30.10,ENE,65,0.0,0.0,97,0.00,CLR,,0.00,WeatherDisplay:10.37,2013-03-25 14:10:00,
2013-03-25 07:20:00,29.6,29.1,30.09,East,79,1.0,4.0,98,0.00,,,0.00,WeatherDisplay:10.37,2013-03-25 14:20:00,
2013-03-25 07:30:00,29.8,29.3,30.09,WSW,238,0.0,0.0,98,0.00,,,0.00,WeatherDisplay:10.37,2013-03-25 14:30:00,
2013-03-25 07:40:00,29.8,29.1,30.09,WSW,252,0.0,0.0,97,0.00,CLR,,0.00,WeatherDisplay:10.37,2013-03-25 14:40:00,
2013-03-25 07:50:00,30.1,29.6,30.09,WSW,251,0.0,0.0,98,0.00,,,0.00,WeatherDisplay:10.37,2013-03-25 14:50:00,
2013-03-25 08:00:00,32.0,31.5,30.09,SSE,162,0.0,0.0,98,0.00,,,0.00,WeatherDisplay:10.37,2013-03-25 15:00:00,
2013-03-25 08:05:00,32.6,31.6,30.09,ENE,70,0.0,0.0,96,0.00,CLR,,0.00,WeatherDisplay:10.37,2013-03-25 15:05:00,
2013-03-25 08:10:00,33.1,31.8,30.09,ENE,64,0.0,0.0,95,0.00,CLR,,0.00,WeatherDisplay:10.37,2013-03-25 15:10:00,
2013-03-25 08:20:00,34.7,32.9,30.09,ENE,62,0.0,0.0,93,0.00,CLR,,0.00,WeatherDisplay:10.37,2013-03-25 15:20:00,
2013-03-25 08:30:00,35.8,32.6,30.09,ENE,65,0.0,0.0,88,0.00,CLR,,0.00,WeatherDisplay:10.37,2013-03-25 15:30:00,
2013-03-25 08:40:00,36.3,33.1,30.09,ENE,64,0.0,0.0,88,0.00,CLR,,0.00,WeatherDisplay:10.37,2013-03-25 15:40:00,
2013-03-25 08:50:00,36.6,33.4,30.09,ENE,59,0.0,0.0,88,0.00,CLR,,0.00,WeatherDisplay:10.37,2013-03-25 15:50:00,
2013-03-25 09:00:00,38.3,34.2,30.09,ENE,58,0.0,0.0,85,0.00,CLR,,0.00,WeatherDisplay:10.37,2013-03-25 16:00:00,
2013-03-25 09:05:00,38.5,34.4,30.09,ENE,57,0.0,0.0,85,0.00,CLR,,0.00,WeatherDisplay:10.37,2013-03-25 16:05:00,
2013-03-25 09:10:00,39.0,33.6,30.08,ENE,57,0.0,0.0,81,0.00,CLR,,0.00,WeatherDisplay:10.37,2013-03-25 16:10:00,
2013-03-25 09:20:00,40.3,34.0,30.08,ENE,65,0.0,0.0,78,0.00,CLR,,0.00,WeatherDisplay:10.37,2013-03-25 16:20:00,
2013-03-25 09:30:00,40.7,34.4,30.08,ENE,69,0.0,0.0,78,0.00,CLR,,0.00,WeatherDisplay:10.37,2013-03-25 16:30:00,
2013-03-25 09:40:00,41.9,35.8,30.08,ENE,61,0.0,0.0,79,0.00,CLR,,0.00,WeatherDisplay:10.37,2013-03-25 16:40:00,
2013-03-25 09:50:00,43.1,35.3,30.08,ENE,65,0.0,0.0,74,0.00,CLR,,0.00,WeatherDisplay:10.37,2013-03-25 16:50:00,
2013-03-25 10:00:00,43.9,35.5,30.08,ENE,68,0.0,0.0,72,0.00,CLR,,0.00,WeatherDisplay:10.37,2013-03-25 17:00:00,
2013-03-25 10:05:00,44.5,35.0,30.08,ENE,68,0.0,0.0,69,0.00,CLR,,0.00,WeatherDisplay:10.37,2013-03-25 17:05:00,
2013-03-25 10:10:00,45.0,35.1,30.07,ENE,69,0.0,1.0,68,0.00,CLR,,0.00,WeatherDisplay:10.37,2013-03-25 17:10:00,
2013-03-25 10:20:00,46.4,34.9,30.07,NE,51,1.0,3.0,64,0.00,CLR,,0.00,WeatherDisplay:10.37,2013-03-25 17:20:00,
2013-03-25 10:30:00,47.2,34.9,30.07,ENE,78,0.0,2.0,62,0.00,CLR,,0.00,WeatherDisplay:10.37,2013-03-25 17:30:00,
2013-03-25 10:40:00,48.1,34.5,30.07,ENE,68,0.0,2.0,59,0.00,CLR,,0.00,WeatherDisplay:10.37,2013-03-25 17:40:00,
2013-03-25 10:50:00,49.8,33.8,30.06,NE,44,0.0,4.0,54,0.00,CLR,,0.00,WeatherDisplay:10.37,2013-03-25 17:50:00,
2013-03-25 11:00:00,50.5,32.5,30.06,NE,52,0.0,1.0,50,0.00,CLR,,0.00,WeatherDisplay:10.37,2013-03-25 18:00:00,
2013-03-25 11:05:00,51.1,32.6,30.06,ENE,58,0.0,0.0,49,0.00,CLR,,0.00,WeatherDisplay:10.37,2013-03-25 18:05:00,
2013-03-25 11:10:00,51.8,33.3,30.06,NE,38,0.0,0.0,49,0.00,CLR,,0.00,WeatherDisplay:10.37,2013-03-25 18:10:00,
2013-03-25 11:20:00,52.9,32.1,30.05,NE,39,0.0,0.0,45,0.00,CLR,,0.00,WeatherDisplay:10.37,2013-03-25 18:20:00,
2013-03-25 11:30:00,54.0,33.1,30.05,SSE,150,0.0,0.0,45,0.00,CLR,,0.00,WeatherDisplay:10.37,2013-03-25 18:30:00,
2013-03-25 11:40:00,54.4,33.4,30.05,NE,41,1.0,4.0,45,0.00,CLR,,0.00,WeatherDisplay:10.37,2013-03-25 18:40:00,
2013-03-25 11:50:00,55.6,31.0,30.04,NNW,329,0.0,2.0,39,0.00,CLR,,0.00,WeatherDisplay:10.37,2013-03-25 18:50:00,
2013-03-25 12:00:00,56.0,31.4,30.04,East,88,0.0,3.0,39,0.00,CLR,,0.00,WeatherDisplay:10.37,2013-03-25 19:00:00,
2013-03-25 12:05:00,56.5,31.8,30.04,WSW,255,0.0,2.0,39,0.00,CLR,,0.00,WeatherDisplay:10.37,2013-03-25 19:05:00,
2013-03-25 12:10:00,57.5,32.0,30.04,NW,308,1.0,4.0,38,0.00,CLR,,0.00,WeatherDisplay:10.37,2013-03-25 19:10:00,
2013-03-25 12:20:00,57.9,33.1,30.03,West,266,0.0,3.0,39,0.00,CLR,,0.00,WeatherDisplay:10.37,2013-03-25 19:20:00,
2013-03-25 12:30:00,58.3,31.4,30.03,ENE,58,2.0,3.0,36,0.00,CLR,,0.00,WeatherDisplay:10.37,2013-03-25 19:30:00,
2013-03-25 12:40:00,58.7,31.1,30.02,West,273,1.0,3.0,35,0.00,CLR,,0.00,WeatherDisplay:10.37,2013-03-25 19:40:00,
2013-03-25 12:50:00,59.1,32.8,30.02,West,266,0.0,2.0,37,0.00,CLR,,0.00,WeatherDisplay:10.37,2013-03-25 19:50:00,
2013-03-25 13:00:00,59.5,33.2,30.02,NE,40,0.0,0.0,37,0.00,CLR,,0.00,WeatherDisplay:10.37,2013-03-25 20:00:00,
2013-03-25 13:05:00,60.1,30.9,30.01,NW,314,1.0,4.0,33,0.00,CLR,,0.00,WeatherDisplay:10.37,2013-03-25 20:05:00,
2013-03-25 13:10:00,59.8,30.6,30.01,West,264,0.0,3.0,33,0.00,CLR,,0.00,WeatherDisplay:10.37,2013-03-25 20:10:00,
2013-03-25 13:15:00,59.6,30.4,30.01,West,268,0.0,2.0,33,0.00,CLR,,0.00,WeatherDisplay:10.37,2013-03-25 20:15:00,
2013-03-25 13:20:00,59.6,30.5,30.01,NNE,27,2.0,3.0,33,0.00,CLR,,0.00,WeatherDisplay:10.37,2013-03-25 20:20:00,
2013-03-25 13:30:00,59.7,31.3,30.01,SSW,209,0.0,4.0,34,0.00,CLR,,0.00,WeatherDisplay:10.37,2013-03-25 20:30:00,
2013-03-25 13:40:00,60.1,30.1,30.00,SW,226,1.0,2.0,32,0.00,CLR,,0.00,WeatherDisplay:10.37,2013-03-25 20:40:00,
2013-03-25 13:50:00,60.8,32.2,30.00,NNE,27,1.0,3.0,34,0.00,CLR,,0.00,WeatherDisplay:10.37,2013-03-25 20:50:00,
2013-03-25 14:00:00,60.7,31.4,29.99,ENE,75,0.0,2.0,33,0.00,CLR,,0.00,WeatherDisplay:10.37,2013-03-25 21:00:00,
2013-03-25 14:05:00,60.7,31.4,29.99,ENE,63,2.0,7.0,33,0.00,CLR,,0.00,WeatherDisplay:10.37,2013-03-25 21:05:00,
2013-03-25 14:10:00,61.0,31.7,29.99,NE,51,0.0,5.0,33,0.00,CLR,,0.00,WeatherDisplay:10.37,2013-03-25 21:10:00,
2013-03-25 14:20:00,61.5,31.3,29.99,NE,47,2.0,6.0,32,0.00,CLR,,0.00,WeatherDisplay:10.37,2013-03-25 21:20:00,
2013-03-25 14:30:00,62.1,32.6,29.98,NE,52,3.0,6.0,33,0.00,CLR,,0.00,WeatherDisplay:10.37,2013-03-25 21:30:00,
2013-03-25 14:40:00,61.4,31.3,29.98,ENE,75,1.0,6.0,32,0.00,CLR,,0.00,WeatherDisplay:10.37,2013-03-25 21:40:00,
2013-03-25 14:50:00,61.5,32.9,29.97,NE,45,2.0,5.0,34,0.00,CLR,,0.00,WeatherDisplay:10.37,2013-03-25 21:50:00,
2013-03-25 15:00:00,61.7,32.2,29.97,ENE,70,1.0,4.0,33,0.00,CLR,,0.00,WeatherDisplay:10.37,2013-03-25 22:00:00,
2013-03-25 15:05:00,62.2,32.0,29.97,ENE,57,2.0,6.0,32,0.00,CLR,,0.00,WeatherDisplay:10.37,2013-03-25 22:05:00,
2013-03-25 15:10:00,62.1,33.4,29.97,North,4,2.0,4.0,34,0.00,CLR,,0.00,WeatherDisplay:10.37,2013-03-25 22:10:00,
2013-03-25 15:20:00,62.5,32.2,29.96,NE,34,1.0,4.0,32,0.00,CLR,,0.00,WeatherDisplay:10.37,2013-03-25 22:20:00,
2013-03-25 15:30:00,62.2,32.7,29.96,NW,312,0.0,2.0,33,0.00,CLR,,0.00,WeatherDisplay:10.37,2013-03-25 22:30:00,
2013-03-25 15:40:00,62.5,33.7,29.96,ENE,78,3.0,7.0,34,0.00,CLR,,0.00,WeatherDisplay:10.37,2013-03-25 22:40:00,
2013-03-25 15:50:00,62.4,32.1,29.95,North,350,1.0,6.0,32,0.00,CLR,,0.00,WeatherDisplay:10.37,2013-03-25 22:50:00,
2013-03-25 16:00:00,62.0,31.8,29.95,West,274,2.0,5.0,32,0.00,CLR,,0.00,WeatherDisplay:10.37,2013-03-25 23:00:00,
2013-03-25 16:05:00,61.9,32.5,29.95,West,264,2.0,6.0,33,0.00,CLR,,0.00,WeatherDisplay:10.37,2013-03-25 23:05:00,
2013-03-25 16:10:00,61.8,32.4,29.95,WSW,239,1.0,4.0,33,0.00,CLR,,0.00,WeatherDisplay:10.37,2013-03-25 23:10:00,
2013-03-25 16:20:00,61.9,33.2,29.95,SW,228,0.0,2.0,34,0.00,CLR,,0.00,WeatherDisplay:10.37,2013-03-25 23:20:00,
2013-03-25 16:30:00,61.4,32.0,29.94,WSW,256,2.0,5.0,33,0.00,CLR,,0.00,WeatherDisplay:10.37,2013-03-25 23:30:00,
2013-03-25 16:40:00,61.2,33.3,29.94,WSW,238,1.0,2.0,35,0.00,CLR,,0.00,WeatherDisplay:10.37,2013-03-25 23:40:00,
2013-03-25 16:50:00,61.1,32.5,29.94,West,273,2.0,4.0,34,0.00,CLR,,0.00,WeatherDisplay:10.37,2013-03-25 23:50:00,
2013-03-25 17:00:00,60.9,33.0,29.94,WSW,255,2.0,5.0,35,0.00,CLR,,0.00,WeatherDisplay:10.37,2013-03-26 00:00:00,
2013-03-25 17:05:00,60.7,34.3,29.94,West,259,2.0,4.0,37,0.00,CLR,,0.00,WeatherDisplay:10.37,2013-03-26 00:05:00,
2013-03-25 17:10:00,60.7,37.5,29.94,West,263,0.0,3.0,42,0.00,CLR,,0.00,WeatherDisplay:10.37,2013-03-26 00:10:00,
2013-03-25 17:20:00,60.7,33.6,29.93,WSW,250,0.0,2.0,36,0.00,CLR,,0.00,WeatherDisplay:10.37,2013-03-26 00:20:00,
2013-03-25 17:30:00,60.7,37.4,29.93,NE,53,0.0,4.0,42,0.00,CLR,,0.00,WeatherDisplay:10.37,2013-03-26 00:30:00,
2013-03-25 17:40:00,60.7,38.1,29.93,West,270,0.0,1.0,43,0.00,CLR,,0.00,WeatherDisplay:10.37,2013-03-26 00:40:00,
2013-03-25 17:50:00,60.7,36.9,29.93,East,83,0.0,0.0,41,0.00,CLR,,0.00,WeatherDisplay:10.37,2013-03-26 00:50:00,
2013-03-25 18:00:00,60.2,38.8,29.93,West,270,0.0,2.0,45,0.00,CLR,,0.00,WeatherDisplay:10.37,2013-03-26 01:00:00,
2013-03-25 18:05:00,59.9,35.5,29.93,WNW,284,0.0,0.0,40,0.00,CLR,,0.00,WeatherDisplay:10.37,2013-03-26 01:05:00,
2013-03-25 18:10:00,60.0,37.4,29.93,NE,43,0.0,0.0,43,0.00,CLR,,0.00,WeatherDisplay:10.37,2013-03-26 01:10:00,
2013-03-25 18:20:00,59.7,39.4,29.93,North,11,0.0,1.0,47,0.00,CLR,,0.00,WeatherDisplay:10.37,2013-03-26 01:20:00,
2013-03-25 18:30:00,58.7,39.1,29.93,WSW,252,0.0,0.0,48,0.00,CLR,,0.00,WeatherDisplay:10.37,2013-03-26 01:30:00,
2013-03-25 18:40:00,57.9,40.3,29.93,West,259,0.0,0.0,52,0.00,CLR,,0.00,WeatherDisplay:10.37,2013-03-26 01:40:00,
2013-03-25 18:50:00,57.0,39.5,29.93,WSW,258,0.0,0.0,52,0.00,CLR,,0.00,WeatherDisplay:10.37,2013-03-26 01:50:00,
2013-03-25 19:00:00,56.5,39.1,29.93,WSW,256,0.0,0.0,52,0.00,CLR,,0.00,WeatherDisplay:10.37,2013-03-26 02:00:00,
2013-03-25 19:05:00,56.1,38.7,29.93,WSW,254,0.0,0.0,52,0.00,CLR,,0.00,WeatherDisplay:10.37,2013-03-26 02:05:00,
2013-03-25 19:10:00,56.0,38.1,29.93,WSW,254,0.0,0.0,51,0.00,CLR,,0.00,WeatherDisplay:10.37,2013-03-26 02:10:00,
2013-03-25 19:20:00,56.0,38.1,29.93,WSW,244,1.0,2.0,51,0.00,CLR,,0.00,WeatherDisplay:10.37,2013-03-26 02:20:00,
2013-03-25 19:30:00,55.3,38.9,29.94,WSW,257,0.0,1.0,54,0.00,CLR,,0.00,WeatherDisplay:10.37,2013-03-26 02:30:00,
2013-03-25 19:40:00,54.5,40.0,29.94,West,259,0.0,0.0,58,0.00,CLR,,0.00,WeatherDisplay:10.37,2013-03-26 02:40:00,
2013-03-25 19:50:00,53.7,40.6,29.94,WSW,256,0.0,0.0,61,0.00,CLR,,0.00,WeatherDisplay:10.37,2013-03-26 02:50:00,
2013-03-25 20:00:00,52.9,39.8,29.94,WSW,252,0.0,0.0,61,0.00,CLR,,0.00,WeatherDisplay:10.37,2013-03-26 03:00:00,
2013-03-25 20:10:00,52.4,39.8,29.94,WSW,251,0.0,0.0,62,0.00,CLR,,0.00,WeatherDisplay:10.37,2013-03-26 03:10:00,
2013-03-25 20:20:00,52.0,39.8,29.94,WSW,252,0.0,0.0,63,0.00,CLR,,0.00,WeatherDisplay:10.37,2013-03-26 03:20:00,
2013-03-25 20:30:00,51.6,39.8,29.95,WSW,251,0.0,0.0,64,0.00,CLR,,0.00,WeatherDisplay:10.37,2013-03-26 03:30:00,
2013-03-25 20:40:00,51.3,39.9,29.95,WSW,255,0.0,0.0,65,0.00,CLR,,0.00,WeatherDisplay:10.37,2013-03-26 03:40:00,
2013-03-25 20:50:00,51.2,40.6,29.95,WSW,255,0.0,0.0,67,0.00,CLR,,0.00,WeatherDisplay:10.37,2013-03-26 03:50:00,
2013-03-25 21:00:00,50.8,40.7,29.95,WSW,255,0.0,0.0,68,0.00,CLR,,0.00,WeatherDisplay:10.37,2013-03-26 04:00:00,
2013-03-25 21:05:00,50.8,40.2,29.95,WSW,255,0.0,0.0,67,0.00,CLR,,0.00,WeatherDisplay:10.37,2013-03-26 04:05:00,
2013-03-25 21:10:00,50.6,40.5,29.95,WSW,255,0.0,0.0,68,0.00,CLR,,0.00,WeatherDisplay:10.37,2013-03-26 04:10:00,
2013-03-25 21:20:00,50.4,40.2,29.96,WSW,255,0.0,0.0,68,0.00,CLR,,0.00,WeatherDisplay:10.37,2013-03-26 04:20:00,
2013-03-25 21:30:00,50.1,40.3,29.96,WSW,255,0.0,0.0,69,0.00,CLR,,0.00,WeatherDisplay:10.37,2013-03-26 04:30:00,
2013-03-25 21:35:00,50.0,40.6,29.96,WSW,255,0.0,0.0,70,0.00,CLR,,0.00,WeatherDisplay:10.37,2013-03-26 04:35:00,
2013-03-25 21:40:00,49.9,40.5,29.96,WSW,255,0.0,0.0,70,0.00,CLR,,0.00,WeatherDisplay:10.37,2013-03-26 04:40:00,
2013-03-25 21:50:00,49.5,40.8,29.96,WSW,255,0.0,0.0,72,0.00,CLR,,0.00,WeatherDisplay:10.37,2013-03-26 04:50:00,
2013-03-25 22:00:00,49.2,40.6,29.96,WSW,255,0.0,0.0,72,0.00,CLR,,0.00,WeatherDisplay:10.37,2013-03-26 05:00:00,
2013-03-25 22:05:00,49.1,40.8,29.96,WSW,255,0.0,0.0,73,0.00,CLR,,0.00,WeatherDisplay:10.37,2013-03-26 05:05:00,
2013-03-25 22:10:00,49.0,40.0,29.96,WSW,255,0.0,0.0,71,0.00,CLR,,0.00,WeatherDisplay:10.37,2013-03-26 05:10:00,
2013-03-25 22:20:00,48.8,40.5,29.96,WSW,255,0.0,0.0,73,0.00,CLR,,0.00,WeatherDisplay:10.37,2013-03-26 05:20:00,
2013-03-25 22:30:00,48.7,40.4,29.96,WSW,255,0.0,0.0,73,0.00,CLR,,0.00,WeatherDisplay:10.37,2013-03-26 05:30:00,
2013-03-25 22:40:00,48.7,39.7,29.96,WSW,255,0.0,0.0,71,0.00,CLR,,0.00,WeatherDisplay:10.37,2013-03-26 05:40:00,
2013-03-25 22:50:00,48.4,40.5,29.96,WSW,255,0.0,0.0,74,0.00,CLR,,0.00,WeatherDisplay:10.37,2013-03-26 05:50:00,
2013-03-25 23:00:00,47.9,40.0,29.96,WSW,255,0.0,0.0,74,0.00,CLR,,0.00,WeatherDisplay:10.37,2013-03-26 06:00:00,
2013-03-25 23:10:00,47.4,39.2,29.96,WSW,255,0.0,0.0,73,0.00,CLR,,0.00,WeatherDisplay:10.37,2013-03-26 06:10:00,
2013-03-25 23:20:00,46.9,38.7,29.96,WSW,255,0.0,0.0,73,0.00,CLR,,0.00,WeatherDisplay:10.37,2013-03-26 06:20:00,
2013-03-25 23:30:00,46.5,38.6,29.97,WSW,255,0.0,0.0,74,0.00,CLR,,0.00,WeatherDisplay:10.37,2013-03-26 06:30:00,
2013-03-25 23:40:00,46.0,39.5,29.97,WSW,255,0.0,0.0,78,0.00,CLR,,0.00,WeatherDisplay:10.37,2013-03-26 06:40:00,
2013-03-25 23:50:00,45.9,39.4,29.97,WSW,255,0.0,0.0,78,0.00,CLR,,0.00,WeatherDisplay:10.37,2013-03-26 06:50:00,